createdAt,value
2023-01-15T00:00:41.687Z,0.40
2023-01-15T00:02:17.511Z,0.40
2023-01-15T00:03:50.833Z,0.47
2023-01-15T00:05:23.612Z,0.40
2023-01-15T00:06:56.297Z,0.60
2023-01-15T00:08:28.992Z,0.40
2023-01-15T00:10:00.753Z,1.00
2023-01-15T00:11:33.940Z,0.40
2023-01-15T00:13:05.685Z,0.70
2023-01-15T00:14:38.399Z,0.57
2023-01-15T00:16:13.434Z,0.50
2023-01-15T00:17:47.467Z,0.50
2023-01-15T00:19:21.706Z,0.40
2023-01-15T00:20:59.449Z,0.40
2023-01-15T00:22:32.133Z,0.40
2023-01-15T00:24:23.382Z,0.47
2023-01-15T00:26:15.086Z,0.40
2023-01-15T00:27:47.824Z,0.40
2023-01-15T00:29:21.000Z,0.53
2023-01-15T00:30:53.713Z,0.30
2023-01-15T00:32:27.639Z,0.60
2023-01-15T00:34:01.721Z,0.50
2023-01-15T00:35:34.416Z,0.40
2023-01-15T00:37:07.362Z,0.93
2023-01-15T00:38:40.054Z,0.50
2023-01-15T00:40:13.698Z,0.50
2023-01-15T00:41:46.438Z,0.40
2023-01-15T00:43:19.140Z,0.37
2023-01-15T00:44:51.852Z,0.40
2023-01-15T00:46:23.616Z,0.50
2023-01-15T00:47:56.327Z,0.40
2023-01-15T00:49:30.763Z,0.50
2023-01-15T00:51:03.093Z,0.60
2023-01-15T00:52:36.270Z,0.50
2023-01-15T00:54:08.973Z,0.60
2023-01-15T00:55:41.757Z,0.50
2023-01-15T00:57:15.243Z,0.50
2023-01-15T00:58:48.448Z,0.60
2023-01-15T01:00:20.613Z,0.50
2023-01-15T01:01:53.482Z,0.50
2023-01-15T01:03:26.255Z,0.83
2023-01-15T01:05:00.292Z,0.70
2023-01-15T01:06:33.029Z,2.20
2023-01-15T01:08:06.050Z,0.40
2023-01-15T01:09:38.773Z,0.50
2023-01-15T01:11:13.748Z,0.50
2023-01-15T01:12:48.448Z,1.47
2023-01-15T01:14:21.199Z,0.50
2023-01-15T01:15:53.916Z,1.97
2023-01-15T01:17:26.714Z,0.57
2023-01-15T01:19:00.138Z,0.60
2023-01-15T01:20:35.101Z,0.50
2023-01-15T01:22:07.865Z,0.70
2023-01-15T01:23:39.602Z,0.50
2023-01-15T01:25:12.509Z,0.83
2023-01-15T01:26:45.735Z,0.83
2023-01-15T01:28:18.457Z,0.70
2023-01-15T01:29:51.164Z,0.40
2023-01-15T01:31:24.815Z,0.40
2023-01-15T01:32:56.611Z,0.37
2023-01-15T01:34:29.368Z,0.20
2023-01-15T01:36:03.539Z,0.20
2023-01-15T01:37:36.254Z,0.20
2023-01-15T01:39:13.361Z,0.93
2023-01-15T01:40:46.064Z,0.17
2023-01-15T01:42:19.422Z,0.20
2023-01-15T01:43:56.198Z,0.20
2023-01-15T01:45:33.597Z,0.30
2023-01-15T01:47:08.580Z,0.43
2023-01-15T01:48:41.295Z,0.20
2023-01-15T01:50:15.219Z,0.20
2023-01-15T01:51:52.844Z,0.27
2023-01-15T01:53:28.939Z,0.20
2023-01-15T01:55:02.685Z,0.32
2023-01-15T01:56:36.741Z,0.83
2023-01-15T01:58:11.665Z,0.20
2023-01-15T01:59:44.622Z,0.38
2023-01-15T02:01:17.953Z,0.27
2023-01-15T02:02:52.399Z,0.20
2023-01-15T02:04:27.340Z,0.73
2023-01-15T02:06:02.334Z,0.40
2023-01-15T02:07:36.659Z,0.33
2023-01-15T02:09:09.665Z,0.20
2023-01-15T02:10:42.441Z,0.33
2023-01-15T02:12:21.026Z,0.93
2023-01-15T02:14:01.619Z,0.20
2023-01-15T02:15:37.920Z,0.22
2023-01-15T02:17:15.404Z,0.40
2023-01-15T02:18:56.261Z,0.30
2023-01-15T02:20:32.413Z,0.20
2023-01-15T02:22:15.446Z,0.87
2023-01-15T02:24:06.117Z,0.97
2023-01-15T02:25:55.744Z,0.40
2023-01-15T02:27:30.069Z,0.30
2023-01-15T02:29:05.784Z,0.30
2023-01-15T02:30:43.271Z,0.20
2023-01-15T02:32:21.191Z,0.28
2023-01-15T02:33:59.763Z,0.40
2023-01-15T02:35:37.355Z,0.30
2023-01-15T02:37:15.028Z,0.22
2023-01-15T02:38:51.154Z,0.22
2023-01-15T02:40:26.499Z,0.20
2023-01-15T02:42:03.794Z,0.30
2023-01-15T02:43:40.104Z,0.38
2023-01-15T02:45:15.108Z,0.80
2023-01-15T02:46:48.957Z,0.88
2023-01-15T02:48:27.335Z,1.58
2023-01-15T02:50:06.043Z,0.20
2023-01-15T02:51:43.866Z,0.20
2023-01-15T02:53:23.579Z,0.45
2023-01-15T02:55:01.427Z,0.38
2023-01-15T02:56:36.578Z,0.25
2023-01-15T02:58:14.003Z,0.45
2023-01-15T02:59:49.926Z,0.30
2023-01-15T03:01:27.253Z,0.40
2023-01-15T03:03:03.113Z,0.30
2023-01-15T03:04:42.476Z,0.75
2023-01-15T03:06:19.415Z,0.30
2023-01-15T03:07:54.935Z,0.30
2023-01-15T03:09:30.706Z,0.30
2023-01-15T03:11:09.608Z,0.17
2023-01-15T03:13:06.085Z,0.30
2023-01-15T03:14:44.509Z,0.20
2023-01-15T03:16:35.379Z,0.15
2023-01-15T03:18:10.455Z,0.20
2023-01-15T03:19:49.023Z,0.10
2023-01-15T03:21:26.526Z,0.20
2023-01-15T03:23:04.130Z,0.10
2023-01-15T03:24:41.800Z,0.28
2023-01-15T03:26:14.620Z,0.40
2023-01-15T03:27:47.375Z,0.10
2023-01-15T03:29:21.283Z,1.40
2023-01-15T03:30:54.220Z,0.30
2023-01-15T03:32:31.168Z,0.20
2023-01-15T03:34:04.395Z,0.10
2023-01-15T03:35:49.506Z,0.32
2023-01-15T03:37:25.090Z,0.20
2023-01-15T03:38:57.784Z,0.20
2023-01-15T03:40:30.960Z,0.45
2023-01-15T03:42:16.688Z,0.35
2023-01-15T03:43:59.144Z,0.20
2023-01-15T03:45:37.401Z,0.22
2023-01-15T03:47:23.156Z,0.22
2023-01-15T03:49:04.260Z,0.30
2023-01-15T03:50:43.981Z,0.10
2023-01-15T03:52:21.793Z,0.40
2023-01-15T03:53:57.198Z,0.55
2023-01-15T03:55:36.921Z,0.10
2023-01-15T03:57:14.884Z,0.22
2023-01-15T03:58:53.513Z,1.65
2023-01-15T04:00:27.553Z,0.32
2023-01-15T04:02:03.091Z,0.20
2023-01-15T04:03:37.008Z,0.20
2023-01-15T04:05:11.561Z,0.43
2023-01-15T04:06:45.588Z,0.70
2023-01-15T04:08:18.571Z,0.30
2023-01-15T04:09:51.490Z,0.17
2023-01-15T04:11:25.757Z,0.20
2023-01-15T04:12:58.480Z,0.25
2023-01-15T04:14:31.821Z,0.35
2023-01-15T04:16:05.896Z,0.30
2023-01-15T04:17:38.676Z,0.40
2023-01-15T04:19:11.469Z,0.20
2023-01-15T04:20:45.531Z,0.20
2023-01-15T04:22:18.413Z,0.20
2023-01-15T04:23:51.588Z,0.65
2023-01-15T04:25:24.273Z,0.10
2023-01-15T04:26:57.027Z,0.22
2023-01-15T04:28:28.743Z,0.10
2023-01-15T04:30:01.431Z,0.70
2023-01-15T04:31:34.952Z,1.00
2023-01-15T04:33:07.616Z,0.22
2023-01-15T04:34:40.397Z,0.30
2023-01-15T04:36:14.764Z,0.35
2023-01-15T04:37:47.791Z,0.10
2023-01-15T04:39:20.517Z,0.20
2023-01-15T04:41:10.748Z,0.30
2023-01-15T04:43:01.272Z,0.10
2023-01-15T04:44:34.561Z,0.50
2023-01-15T04:46:06.327Z,0.20
2023-01-15T04:47:39.144Z,0.30
2023-01-15T04:49:14.009Z,0.20
2023-01-15T04:50:46.733Z,0.10
2023-01-15T04:52:20.764Z,0.10
2023-01-15T04:53:52.580Z,0.13
2023-01-15T04:55:25.257Z,0.20
2023-01-15T04:56:57.927Z,0.35
2023-01-15T04:58:29.782Z,0.15
2023-01-15T05:00:02.618Z,0.43
2023-01-15T05:01:34.671Z,0.20
2023-01-15T05:03:07.432Z,0.38
2023-01-15T05:04:40.251Z,0.20
2023-01-15T05:06:14.217Z,0.17
2023-01-15T05:07:48.258Z,0.52
2023-01-15T05:09:21.050Z,0.10
2023-01-15T05:10:52.789Z,0.20
2023-01-15T05:12:26.154Z,0.40
2023-01-15T05:13:58.863Z,2.22
2023-01-15T05:15:31.571Z,0.10
2023-01-15T05:17:04.328Z,1.45
2023-01-15T05:18:36.060Z,0.10
2023-01-15T05:20:10.945Z,0.65
2023-01-15T05:21:44.582Z,0.70
2023-01-15T05:23:18.599Z,0.20
2023-01-15T05:24:51.312Z,0.22
2023-01-15T05:26:24.201Z,0.30
2023-01-15T05:27:56.893Z,0.22
2023-01-15T05:29:29.586Z,1.10
2023-01-15T05:31:07.111Z,0.20
2023-01-15T05:32:39.806Z,0.25
2023-01-15T05:34:13.271Z,0.80
2023-01-15T05:35:45.989Z,0.20
2023-01-15T05:37:18.714Z,0.20
2023-01-15T05:38:53.269Z,0.20
2023-01-15T05:40:24.995Z,0.40
2023-01-15T05:41:57.668Z,0.25
2023-01-15T05:43:30.361Z,0.10
2023-01-15T05:45:03.084Z,0.43
2023-01-15T05:46:37.600Z,0.10
2023-01-15T05:48:10.314Z,0.25
2023-01-15T05:49:43.264Z,0.20
2023-01-15T05:51:16.436Z,0.20
2023-01-15T05:52:49.153Z,0.30
2023-01-15T05:54:24.602Z,1.10
2023-01-15T05:55:57.299Z,0.20
2023-01-15T05:57:29.971Z,0.25
2023-01-15T05:59:02.758Z,0.15
2023-01-15T06:00:35.464Z,0.20
2023-01-15T06:02:08.436Z,0.10
2023-01-15T06:03:41.630Z,0.10
2023-01-15T06:05:14.424Z,0.20
2023-01-15T06:06:47.608Z,0.20
2023-01-15T06:08:20.305Z,1.23
2023-01-15T06:09:54.329Z,0.20
2023-01-15T06:11:27.320Z,0.80
2023-01-15T06:12:59.983Z,0.40
2023-01-15T06:14:32.703Z,0.30
2023-01-15T06:16:06.080Z,0.10
2023-01-15T06:17:38.832Z,0.45
2023-01-15T06:19:13.635Z,0.20
2023-01-15T06:20:46.313Z,0.13
2023-01-15T06:22:19.029Z,0.30
2023-01-15T06:23:54.999Z,0.20
2023-01-15T06:25:29.044Z,0.20
2023-01-15T06:27:01.727Z,0.28
2023-01-15T06:28:34.720Z,0.20
2023-01-15T06:30:08.715Z,0.52
2023-01-15T06:31:41.444Z,1.02
2023-01-15T06:33:14.157Z,0.70
2023-01-15T06:34:46.839Z,0.85
2023-01-15T06:36:21.930Z,0.20
2023-01-15T06:37:54.634Z,0.80
2023-01-15T06:39:27.404Z,0.98
2023-01-15T06:41:02.634Z,0.90
2023-01-15T06:42:53.041Z,0.10
2023-01-15T06:44:43.561Z,0.40
2023-01-15T06:46:35.476Z,0.30
2023-01-15T06:48:09.137Z,0.30
2023-01-15T06:49:40.943Z,0.60
2023-01-15T06:51:15.494Z,0.82
2023-01-15T06:52:48.183Z,0.40
2023-01-15T06:54:19.892Z,0.30
2023-01-15T06:55:52.661Z,0.38
2023-01-15T06:57:26.684Z,0.70
2023-01-15T06:58:59.359Z,0.63
2023-01-15T07:00:32.178Z,0.75
2023-01-15T07:02:04.991Z,0.43
2023-01-15T07:03:37.985Z,0.10
2023-01-15T07:05:10.838Z,0.22
2023-01-15T07:06:43.716Z,0.30
2023-01-15T07:08:16.524Z,0.40
2023-01-15T07:09:49.431Z,0.20
2023-01-15T07:11:22.198Z,1.02
2023-01-15T07:12:56.223Z,1.85
2023-01-15T07:14:29.055Z,0.40
2023-01-15T07:16:04.619Z,0.45
2023-01-15T07:17:37.520Z,0.30
2023-01-15T07:19:09.388Z,1.73
2023-01-15T07:20:42.108Z,0.40
2023-01-15T07:22:14.816Z,1.40
2023-01-15T07:23:46.579Z,0.57
2023-01-15T07:25:19.774Z,0.63
2023-01-15T07:26:52.487Z,2.88
2023-01-15T07:28:26.504Z,0.80
2023-01-15T07:29:59.163Z,0.63
2023-01-15T07:31:32.046Z,0.32
2023-01-15T07:33:05.114Z,0.50
2023-01-15T07:34:37.801Z,0.40
2023-01-15T07:36:09.718Z,0.50
2023-01-15T07:37:44.012Z,0.52
2023-01-15T07:39:16.775Z,0.70
2023-01-15T07:41:10.405Z,0.60
2023-01-15T07:43:00.773Z,0.60
2023-01-15T07:44:52.610Z,0.60
2023-01-15T07:46:43.058Z,0.90
2023-01-15T07:48:33.428Z,1.00
2023-01-15T07:50:07.566Z,0.68
2023-01-15T07:51:40.247Z,1.08
2023-01-15T07:53:12.919Z,1.90
2023-01-15T07:54:45.939Z,1.40
2023-01-15T07:56:18.654Z,0.93
2023-01-15T07:57:52.276Z,1.10
2023-01-15T07:59:25.140Z,0.43
2023-01-15T08:00:59.220Z,0.40
2023-01-15T08:02:31.962Z,0.40
2023-01-15T08:04:04.871Z,0.50
2023-01-15T08:05:37.641Z,0.28
2023-01-15T08:07:10.420Z,0.20
2023-01-15T08:08:42.144Z,0.40
2023-01-15T08:10:15.469Z,0.20
2023-01-15T08:12:05.957Z,0.20
2023-01-15T08:13:56.419Z,0.30
2023-01-15T08:15:32.850Z,0.55
2023-01-15T08:17:06.879Z,0.30
2023-01-15T08:18:39.625Z,0.20
2023-01-15T08:20:15.035Z,0.20
2023-01-15T08:21:47.903Z,0.30
2023-01-15T08:23:20.581Z,0.30
2023-01-15T08:24:53.258Z,0.30
2023-01-15T08:26:25.961Z,0.60
2023-01-15T08:28:02.879Z,0.38
2023-01-15T08:29:35.654Z,1.02
2023-01-15T08:31:09.133Z,0.68
2023-01-15T08:32:43.229Z,0.30
2023-01-15T08:34:15.930Z,0.95
2023-01-15T08:35:48.644Z,0.30
2023-01-15T08:37:22.452Z,0.40
2023-01-15T08:38:56.416Z,0.30
2023-01-15T08:40:29.113Z,0.30
2023-01-15T08:42:01.857Z,0.55
2023-01-15T08:43:34.555Z,0.30
2023-01-15T08:45:08.535Z,0.40
2023-01-15T08:46:41.334Z,0.40
2023-01-15T08:48:15.371Z,0.40
2023-01-15T08:49:48.943Z,0.52
2023-01-15T08:51:21.708Z,0.93
2023-01-15T08:52:54.401Z,0.43
2023-01-15T08:54:27.078Z,0.30
2023-01-15T08:56:00.166Z,0.30
2023-01-15T08:57:32.882Z,0.20
2023-01-15T08:59:07.816Z,0.88
2023-01-15T09:00:40.511Z,0.43
2023-01-15T09:02:15.195Z,0.60
2023-01-15T09:03:49.290Z,0.30
2023-01-15T09:05:21.976Z,0.30
2023-01-15T09:06:54.739Z,0.40
2023-01-15T09:08:27.734Z,0.47
2023-01-15T09:10:00.415Z,0.28
2023-01-15T09:11:33.107Z,0.40
2023-01-15T09:13:06.183Z,0.40
2023-01-15T09:14:58.866Z,0.65
2023-01-15T09:16:32.652Z,0.55
2023-01-15T09:18:05.669Z,0.50
2023-01-15T09:19:39.689Z,0.70
2023-01-15T09:21:12.451Z,1.92
2023-01-15T09:22:45.130Z,1.27
2023-01-15T09:24:17.832Z,1.00
2023-01-15T09:25:54.177Z,0.60
2023-01-15T09:27:27.309Z,0.60
2023-01-15T09:29:00.729Z,0.60
2023-01-15T09:30:33.602Z,0.50
2023-01-15T09:32:08.054Z,0.70
2023-01-15T09:33:40.753Z,0.60
2023-01-15T09:35:15.334Z,0.50
2023-01-15T09:36:48.184Z,0.63
2023-01-15T09:38:22.590Z,0.50
2023-01-15T09:39:55.253Z,0.60
2023-01-15T09:42:13.432Z,0.57
2023-01-15T09:43:52.973Z,1.65
2023-01-15T09:45:29.360Z,0.82
2023-01-15T09:47:08.957Z,0.40
2023-01-15T09:48:52.759Z,0.32
2023-01-15T09:50:34.849Z,0.50
2023-01-15T09:52:14.831Z,0.38
2023-01-15T09:54:00.394Z,0.65
2023-01-15T09:55:35.261Z,0.73
2023-01-15T09:57:13.437Z,0.38
2023-01-15T09:58:46.332Z,0.65
2023-01-15T10:00:22.474Z,0.80
2023-01-15T10:01:55.181Z,0.50
2023-01-15T10:03:33.840Z,0.52
2023-01-15T10:05:13.981Z,1.00
2023-01-15T10:06:55.659Z,0.35
2023-01-15T10:08:34.387Z,0.32
2023-01-15T10:10:12.921Z,1.30
2023-01-15T10:12:05.918Z,0.68
2023-01-15T10:13:44.472Z,0.55
2023-01-15T10:15:25.178Z,0.80
2023-01-15T10:16:57.962Z,0.40
2023-01-15T10:18:30.792Z,0.55
2023-01-15T10:20:03.742Z,0.65
2023-01-15T10:21:47.988Z,1.15
2023-01-15T10:23:36.410Z,6.03
2023-01-15T10:25:16.939Z,5.13
2023-01-15T10:26:55.984Z,6.93
2023-01-15T10:28:31.319Z,1.48
2023-01-15T10:30:13.232Z,2.40
2023-01-15T10:32:00.487Z,0.40
2023-01-15T10:33:49.103Z,1.83
2023-01-15T10:35:35.605Z,0.43
2023-01-15T10:37:13.628Z,2.20
2023-01-15T10:38:55.028Z,0.70
2023-01-15T10:40:40.867Z,1.40
2023-01-15T10:42:21.284Z,1.60
2023-01-15T10:44:01.223Z,1.88
2023-01-15T10:45:36.707Z,0.95
2023-01-15T10:47:15.299Z,2.55
2023-01-15T10:48:52.068Z,1.60
2023-01-15T10:50:26.553Z,0.90
2023-01-15T10:52:06.867Z,2.55
2023-01-15T10:53:45.027Z,2.17
2023-01-15T10:55:25.209Z,1.70
2023-01-15T10:57:09.962Z,1.20
2023-01-15T10:58:47.724Z,1.85
2023-01-15T11:00:22.346Z,2.17
2023-01-15T11:01:56.499Z,1.38
2023-01-15T11:03:36.278Z,0.90
2023-01-15T11:05:15.484Z,0.98
2023-01-15T11:06:48.289Z,0.98
2023-01-15T11:09:08.769Z,0.70
2023-01-15T11:10:24.772Z,3.53
2023-01-15T11:12:30.279Z,1.30
2023-01-15T11:14:20.672Z,1.60
2023-01-15T11:16:22.641Z,1.88
2023-01-15T11:18:12.708Z,0.45
2023-01-15T11:19:45.399Z,0.93
2023-01-15T11:21:20.345Z,0.93
2023-01-15T11:22:53.112Z,1.02
2023-01-15T11:24:26.880Z,0.40
2023-01-15T11:26:01.861Z,1.65
2023-01-15T11:27:37.400Z,0.93
2023-01-15T11:29:16.416Z,0.50
2023-01-15T11:30:55.642Z,1.13
2023-01-15T11:32:31.705Z,1.30
2023-01-15T11:34:06.169Z,0.40
2023-01-15T11:35:38.885Z,1.77
2023-01-15T11:37:11.951Z,2.42
2023-01-15T11:38:46.739Z,2.33
2023-01-15T11:40:21.062Z,1.20
2023-01-15T11:42:18.788Z,0.75
2023-01-15T11:44:17.777Z,1.00
2023-01-15T11:46:09.824Z,1.48
2023-01-15T11:48:09.475Z,1.77
2023-01-15T11:50:08.309Z,2.25
2023-01-15T11:51:45.103Z,2.92
2023-01-15T11:53:21.680Z,2.60
2023-01-15T11:54:56.244Z,1.40
2023-01-15T11:56:31.189Z,1.52
2023-01-15T11:58:09.241Z,1.67
2023-01-15T11:59:48.900Z,1.17
2023-01-15T12:01:27.903Z,2.88
2023-01-15T12:03:06.101Z,1.00
2023-01-15T12:04:45.304Z,1.75
2023-01-15T12:06:21.497Z,4.03
2023-01-15T12:07:56.995Z,2.08
2023-01-15T12:09:43.718Z,1.85
2023-01-15T12:11:46.474Z,1.58
2023-01-15T12:13:28.833Z,1.05
2023-01-15T12:15:19.194Z,2.38
2023-01-15T12:16:59.180Z,1.02
2023-01-15T12:19:04.464Z,2.47
2023-01-15T12:20:54.095Z,1.55
2023-01-15T12:22:43.158Z,2.53
2023-01-15T12:24:36.723Z,3.35
2023-01-15T12:26:17.724Z,1.52
2023-01-15T12:27:58.243Z,3.47
2023-01-15T12:29:39.338Z,3.95
2023-01-15T12:31:15.231Z,5.47
2023-01-15T12:32:53.780Z,3.10
2023-01-15T12:34:33.253Z,1.63
2023-01-15T12:36:13.715Z,3.55
2023-01-15T12:37:51.399Z,2.92
2023-01-15T12:39:28.082Z,1.77
2023-01-15T12:41:05.278Z,3.78
2023-01-15T12:42:55.999Z,2.38
2023-01-15T12:44:54.690Z,3.63
2023-01-15T12:46:31.701Z,1.45
2023-01-15T12:48:13.456Z,0.90
2023-01-15T12:49:50.077Z,3.58
2023-01-15T12:51:30.455Z,3.33
2023-01-15T12:53:08.521Z,2.35
2023-01-15T12:54:49.495Z,4.63
2023-01-15T12:56:28.779Z,2.53
2023-01-15T12:58:05.933Z,2.88
2023-01-15T12:59:45.756Z,3.40
2023-01-15T13:01:25.718Z,3.80
2023-01-15T13:03:18.881Z,3.05
2023-01-15T13:04:54.168Z,5.38
2023-01-15T13:06:28.637Z,2.72
2023-01-15T13:08:05.979Z,3.33
2023-01-15T13:09:45.187Z,3.58
2023-01-15T13:11:18.003Z,4.03
2023-01-15T13:12:50.891Z,3.70
2023-01-15T13:14:25.195Z,2.40
2023-01-15T13:16:19.146Z,3.00
2023-01-15T13:18:04.093Z,1.83
2023-01-15T13:19:46.391Z,2.58
2023-01-15T13:21:20.328Z,2.55
2023-01-15T13:23:04.548Z,2.50
2023-01-15T13:24:59.674Z,3.00
2023-01-15T13:26:58.353Z,1.92
2023-01-15T13:28:43.325Z,2.53
2023-01-15T13:30:28.205Z,3.90
2023-01-15T13:32:09.692Z,5.30
2023-01-15T13:33:45.289Z,3.70
2023-01-15T13:35:28.924Z,1.75
2023-01-15T13:37:06.488Z,3.08
2023-01-15T13:38:42.834Z,2.20
2023-01-15T13:40:32.708Z,3.80
2023-01-15T13:42:24.281Z,3.10
2023-01-15T13:44:03.515Z,2.92
2023-01-15T13:45:40.210Z,3.28
2023-01-15T13:47:19.633Z,3.63
2023-01-15T13:48:53.823Z,3.45
2023-01-15T13:50:31.157Z,3.13
2023-01-15T13:52:07.368Z,3.95
2023-01-15T13:53:46.373Z,2.53
2023-01-15T13:55:27.008Z,2.90
2023-01-15T13:57:08.646Z,2.85
2023-01-15T13:58:54.281Z,3.40
2023-01-15T14:00:30.556Z,3.63
2023-01-15T14:02:03.334Z,3.72
2023-01-15T14:03:38.971Z,2.78
2023-01-15T14:05:27.786Z,4.38
2023-01-15T14:07:00.539Z,3.28
2023-01-15T14:08:42.613Z,3.65
2023-01-15T14:10:34.817Z,5.00
2023-01-15T14:12:19.148Z,3.40
2023-01-15T14:14:09.486Z,3.33
2023-01-15T14:15:53.647Z,3.45
2023-01-15T14:18:03.619Z,2.03
2023-01-15T14:20:14.780Z,3.90
2023-01-15T14:21:58.328Z,2.92
2023-01-15T14:23:47.618Z,3.45
2023-01-15T14:25:39.777Z,2.97
2023-01-15T14:27:25.089Z,2.50
2023-01-15T14:29:06.743Z,3.58
2023-01-15T14:31:08.204Z,3.33
2023-01-15T14:32:58.985Z,4.15
2023-01-15T14:34:34.457Z,4.45
2023-01-15T14:36:13.140Z,4.20
2023-01-15T14:37:51.241Z,1.95
2023-01-15T14:39:29.426Z,2.15
2023-01-15T14:41:07.135Z,6.68
2023-01-15T14:42:59.429Z,22.90
2023-01-15T14:44:34.136Z,13.73
2023-01-15T14:46:16.079Z,5.53
2023-01-15T14:47:50.516Z,3.30
2023-01-15T14:49:30.593Z,5.95
2023-01-15T14:51:10.900Z,19.10
2023-01-15T14:52:47.643Z,10.07
2023-01-15T14:54:21.152Z,19.45
2023-01-15T14:55:59.027Z,14.43
2023-01-15T14:57:33.816Z,8.80
2023-01-15T14:59:16.173Z,10.52
2023-01-15T15:00:55.911Z,12.05
2023-01-15T15:02:35.776Z,10.32
2023-01-15T15:04:20.657Z,10.23
2023-01-15T15:05:54.051Z,10.93
2023-01-15T15:07:29.362Z,6.15
2023-01-15T15:09:06.607Z,8.90
2023-01-15T15:10:43.459Z,11.18
2023-01-15T15:12:25.981Z,5.53
2023-01-15T15:14:00.933Z,5.78
2023-01-15T15:15:43.471Z,2.63
2023-01-15T15:17:24.226Z,6.43
2023-01-15T15:19:01.548Z,3.80
2023-01-15T15:20:47.359Z,2.95
2023-01-15T15:22:21.367Z,3.00
2023-01-15T15:23:58.920Z,3.35
2023-01-15T15:25:39.413Z,2.70
2023-01-15T15:27:16.939Z,4.75
2023-01-15T15:29:02.940Z,2.45
2023-01-15T15:30:41.670Z,4.30
2023-01-15T15:32:18.372Z,4.10
2023-01-15T15:33:51.087Z,3.33
2023-01-15T15:35:28.821Z,4.00
2023-01-15T15:37:03.659Z,3.17
2023-01-15T15:38:40.276Z,3.95
2023-01-15T15:40:18.274Z,5.82
2023-01-15T15:42:14.114Z,5.95
2023-01-15T15:44:10.737Z,1.60
2023-01-15T15:46:10.564Z,2.42
2023-01-15T15:48:01.489Z,2.78
2023-01-15T15:49:40.514Z,3.10
2023-01-15T15:51:28.548Z,3.35
2023-01-15T15:53:04.321Z,3.42
2023-01-15T15:54:37.065Z,5.45
2023-01-15T15:56:09.774Z,3.22
2023-01-15T15:57:46.145Z,2.70
2023-01-15T15:59:28.237Z,2.42
2023-01-15T16:01:01.550Z,2.67
2023-01-15T16:02:37.920Z,2.33
2023-01-15T16:04:17.571Z,1.20
2023-01-15T16:06:00.898Z,2.03
2023-01-15T16:07:36.273Z,3.22
2023-01-15T16:09:10.901Z,2.03
2023-01-15T16:10:44.627Z,1.60
2023-01-15T16:12:18.660Z,2.67
2023-01-15T16:13:55.204Z,3.55
2023-01-15T16:15:31.819Z,1.20
2023-01-15T16:17:04.750Z,3.92
2023-01-15T16:18:40.882Z,4.38
2023-01-15T16:20:16.331Z,1.42
2023-01-15T16:21:49.836Z,4.85
2023-01-15T16:23:24.513Z,4.57
2023-01-15T16:24:58.826Z,3.30
2023-01-15T16:26:36.060Z,3.17
2023-01-15T16:28:25.466Z,0.70
2023-01-15T16:29:59.974Z,3.90
2023-01-15T16:31:36.460Z,3.00
2023-01-15T16:33:09.413Z,2.60
2023-01-15T16:34:42.787Z,4.90
2023-01-15T16:36:16.261Z,4.00
2023-01-15T16:37:50.725Z,9.48
2023-01-15T16:39:27.659Z,8.85
2023-01-15T16:41:01.787Z,5.90
2023-01-15T16:42:37.885Z,8.90
2023-01-15T16:44:35.956Z,6.93
2023-01-15T16:46:18.339Z,6.00
2023-01-15T16:48:11.671Z,3.55
2023-01-15T16:49:44.589Z,4.50
2023-01-15T16:51:34.157Z,1.67
2023-01-15T16:53:16.165Z,3.85
2023-01-15T16:54:48.998Z,5.28
2023-01-15T16:56:54.042Z,7.07
2023-01-15T16:58:35.815Z,3.47
2023-01-15T17:00:26.846Z,4.20
2023-01-15T17:02:05.942Z,1.80
2023-01-15T17:03:42.723Z,1.60
2023-01-15T17:05:23.702Z,2.13
2023-01-15T17:07:00.066Z,1.60
2023-01-15T17:08:38.413Z,3.60
2023-01-15T17:10:21.034Z,2.50
2023-01-15T17:11:54.964Z,0.95
2023-01-15T17:13:34.187Z,2.10
2023-01-15T17:15:39.367Z,1.17
2023-01-15T17:17:27.459Z,2.00
2023-01-15T17:19:00.138Z,2.75
2023-01-15T17:20:34.257Z,2.80
2023-01-15T17:22:10.629Z,3.25
2023-01-15T17:23:43.433Z,1.40
2023-01-15T17:25:24.513Z,2.08
2023-01-15T17:26:57.235Z,1.48
2023-01-15T17:28:29.923Z,1.52
2023-01-15T17:30:02.896Z,2.47
2023-01-15T17:31:36.203Z,1.67
2023-01-15T17:33:13.739Z,2.92
2023-01-15T17:34:46.454Z,2.65
2023-01-15T17:36:19.590Z,4.95
2023-01-15T17:37:52.424Z,2.00
2023-01-15T17:39:25.148Z,2.95
2023-01-15T17:41:00.602Z,2.83
2023-01-15T17:42:33.316Z,3.15
2023-01-15T17:44:06.795Z,4.85
2023-01-15T17:45:39.511Z,2.47
2023-01-15T17:47:13.111Z,2.05
2023-01-15T17:48:47.138Z,4.15
2023-01-15T17:50:20.508Z,3.95
2023-01-15T17:51:53.232Z,2.28
2023-01-15T17:53:25.938Z,1.80
2023-01-15T17:55:17.797Z,3.58
2023-01-15T17:57:09.368Z,6.40
2023-01-15T17:58:59.765Z,3.58
2023-01-15T18:00:50.093Z,1.65
2023-01-15T18:02:40.499Z,2.38
2023-01-15T18:04:37.096Z,2.58
2023-01-15T18:06:12.771Z,1.77
2023-01-15T18:07:46.907Z,2.63
2023-01-15T18:09:20.089Z,1.90
2023-01-15T18:10:52.822Z,1.77
2023-01-15T18:12:25.633Z,4.32
2023-01-15T18:13:58.478Z,3.83
2023-01-15T18:15:31.414Z,3.03
2023-01-15T18:17:04.259Z,1.13
2023-01-15T18:18:37.318Z,1.13
2023-01-15T18:20:12.792Z,1.08
2023-01-15T18:21:45.511Z,2.50
2023-01-15T18:23:18.531Z,1.85
2023-01-15T18:24:51.244Z,1.35
2023-01-15T18:26:23.961Z,2.30
2023-01-15T18:27:56.659Z,1.48
2023-01-15T18:29:29.480Z,3.30
2023-01-15T18:31:02.233Z,3.50
2023-01-15T18:32:34.948Z,4.30
2023-01-15T18:34:08.934Z,2.17
2023-01-15T18:35:42.997Z,1.65
2023-01-15T18:37:15.885Z,1.48
2023-01-15T18:38:48.807Z,2.72
2023-01-15T18:40:21.820Z,3.10
2023-01-15T18:42:12.217Z,2.63
2023-01-15T18:44:02.703Z,4.25
2023-01-15T18:45:53.209Z,3.70
2023-01-15T18:47:27.194Z,1.45
2023-01-15T18:48:59.886Z,4.05
2023-01-15T18:50:32.597Z,3.10
2023-01-15T18:52:24.621Z,3.85
2023-01-15T18:53:57.765Z,2.15
2023-01-15T18:55:30.434Z,3.28
2023-01-15T18:57:02.287Z,5.50
2023-01-15T18:58:34.990Z,3.25
2023-01-15T19:00:09.091Z,3.47
2023-01-15T19:01:42.920Z,3.63
2023-01-15T19:03:15.637Z,2.92
2023-01-15T19:04:49.189Z,3.40
2023-01-15T19:06:22.009Z,2.83
2023-01-15T19:07:56.357Z,1.88
2023-01-15T19:09:29.059Z,4.97
2023-01-15T19:11:01.907Z,4.80
2023-01-15T19:12:35.906Z,5.20
2023-01-15T19:14:37.542Z,4.53
2023-01-15T19:16:28.295Z,3.72
2023-01-15T19:18:18.741Z,3.00
2023-01-15T19:19:51.427Z,5.13
2023-01-15T19:21:24.885Z,4.00
2023-01-15T19:23:05.057Z,3.65
2023-01-15T19:24:38.307Z,2.95
2023-01-15T19:26:11.093Z,4.20
2023-01-15T19:27:43.848Z,3.20
2023-01-15T19:29:16.559Z,4.75
2023-01-15T19:31:12.383Z,4.75
2023-01-15T19:32:45.118Z,3.97
2023-01-15T19:34:33.202Z,6.85
2023-01-15T19:36:07.410Z,8.15
2023-01-15T19:37:40.266Z,3.00
2023-01-15T19:39:17.422Z,4.70
2023-01-15T19:40:50.314Z,6.97
2023-01-15T19:42:40.916Z,4.78
2023-01-15T19:44:31.531Z,3.53
2023-01-15T19:46:22.035Z,3.03
2023-01-15T19:48:12.527Z,4.22
2023-01-15T19:50:03.013Z,2.25
2023-01-15T19:51:55.687Z,4.97
2023-01-15T19:53:28.577Z,4.82
2023-01-15T19:55:02.989Z,5.50
2023-01-15T19:56:35.673Z,3.70
2023-01-15T19:58:10.753Z,4.97
2023-01-15T19:59:48.312Z,4.97
2023-01-15T20:01:21.087Z,5.85
2023-01-15T20:02:54.680Z,2.95
2023-01-15T20:04:28.168Z,5.47
2023-01-15T20:06:00.850Z,6.53
2023-01-15T20:07:33.722Z,6.22
2023-01-15T20:09:06.486Z,9.43
2023-01-15T20:10:41.571Z,18.92
2023-01-15T20:12:32.260Z,11.02
2023-01-15T20:14:04.928Z,15.45
2023-01-15T20:15:38.827Z,15.05
2023-01-15T20:17:13.661Z,12.65
2023-01-15T20:18:48.791Z,19.50
2023-01-15T20:20:21.546Z,15.05
2023-01-15T20:21:54.228Z,12.40
2023-01-15T20:23:26.923Z,11.75
2023-01-15T20:24:59.677Z,15.13
2023-01-15T20:26:33.719Z,14.30
2023-01-15T20:28:06.457Z,11.02
2023-01-15T20:29:39.409Z,7.47
2023-01-15T20:31:16.334Z,8.27
2023-01-15T20:32:49.067Z,8.07
2023-01-15T20:34:21.875Z,9.98
2023-01-15T20:35:55.362Z,14.05
2023-01-15T20:37:28.055Z,14.05
2023-01-15T20:39:00.765Z,10.82
2023-01-15T20:40:33.455Z,8.75
2023-01-15T20:42:25.234Z,9.00
2023-01-15T20:44:15.645Z,8.80
2023-01-15T20:45:48.477Z,6.13
2023-01-15T20:47:38.613Z,7.25
2023-01-15T20:49:27.416Z,8.82
2023-01-15T20:51:03.072Z,5.60
2023-01-15T20:52:36.004Z,6.82
2023-01-15T20:54:08.695Z,5.90
2023-01-15T20:55:55.869Z,4.07
2023-01-15T20:57:34.045Z,4.40
2023-01-15T20:59:06.738Z,5.35
2023-01-15T21:00:39.446Z,4.82
2023-01-15T21:02:12.976Z,6.38
2023-01-15T21:03:47.202Z,3.45
2023-01-15T21:05:20.571Z,4.22
2023-01-15T21:06:53.300Z,3.65
2023-01-15T21:08:26.056Z,5.85
2023-01-15T21:09:58.812Z,5.32
2023-01-15T21:11:31.504Z,4.05
2023-01-15T21:13:05.665Z,3.90
2023-01-15T21:14:38.451Z,3.20
2023-01-15T21:16:12.844Z,4.22
2023-01-15T21:17:45.850Z,5.60
2023-01-15T21:19:18.842Z,3.17
2023-01-15T21:20:51.716Z,4.68
2023-01-15T21:22:24.664Z,2.92
2023-01-15T21:24:00.035Z,6.03
2023-01-15T21:25:32.788Z,4.30
2023-01-15T21:27:05.848Z,4.22
2023-01-15T21:28:39.897Z,3.95
2023-01-15T21:30:13.290Z,4.05
2023-01-15T21:31:46.219Z,1.75
2023-01-15T21:33:19.115Z,4.32
2023-01-15T21:34:51.838Z,4.22